Time;durP1;ratioP1;P1;durP2;ratioP2;P2;SDS_P1;SDS_P2;PMS_P1;PMS_P2;Temp;Humidity;BMP_temperature;BMP_pressure;BME280_temperature;BME280_humidity;BME280_pressure;Samples;Min_cycle;Max_cycle;Signal;HPM_P1;HPM_P2
2023/10/25 00:03:17;;;;;;;1.33;0.80;;;16.40;78.50;;;;;;10240869;28;20042;-59
2023/10/25 00:08:18;;;;;;;0.98;0.57;;;16.40;78.50;;;;;;10240051;28;20039;-59
2023/10/25 00:13:19;;;;;;;3.17;0.80;;;16.40;78.50;;;;;;10240868;28;20525;-59
2023/10/25 00:18:19;;;;;;;1.27;0.80;;;16.40;78.50;;;;;;10241411;29;20031;-58
2023/10/25 00:23:20;;;;;;;2.25;1.02;;;16.40;78.50;;;;;;10308384;28;20029;-59
2023/10/25 00:28:21;;;;;;;1.13;0.93;;;16.40;78.50;;;;;;10241857;28;20031;-58
2023/10/25 00:33:22;;;;;;;1.35;0.93;;;16.40;78.50;;;;;;10249551;28;20391;-59
2023/10/25 00:38:22;;;;;;;1.13;0.70;;;16.30;78.50;;;;;;10240335;29;20088;-58
2023/10/25 00:43:24;;;;;;;1.25;0.75;;;16.30;78.50;;;;;;10240152;29;20157;-59
2023/10/25 00:48:25;;;;;;;1.45;0.80;;;16.30;78.50;;;;;;10240855;28;20240;-59
2023/10/25 00:53:29;;;;;;;1.88;0.80;;;16.30;78.50;;;;;;10222484;28;20027;-59
2023/10/25 00:58:32;;;;;;;1.55;0.90;;;16.30;78.50;;;;;;10238950;28;20035;-59
2023/10/25 01:03:33;;;;;;;1.23;0.88;;;16.30;78.50;;;;;;10238321;29;20027;-59
2023/10/25 01:08:33;;;;;;;2.67;0.80;;;16.30;78.40;;;;;;10243255;28;20042;-59
2023/10/25 01:13:34;;;;;;;1.25;0.70;;;16.30;78.40;;;;;;10246102;28;20039;-59
2023/10/25 01:18:35;;;;;;;1.00;0.60;;;16.30;78.40;;;;;;10246277;28;20042;-59
2023/10/25 01:23:35;;;;;;;1.40;0.93;;;16.30;78.40;;;;;;10313257;28;20050;-59
2023/10/25 01:28:36;;;;;;;0.93;0.55;;;16.30;78.40;;;;;;10248421;28;20038;-59
2023/10/25 01:33:37;;;;;;;1.38;1.27;;;16.30;78.30;;;;;;10253178;28;20035;-58
2023/10/25 01:38:37;;;;;;;1.30;0.75;;;16.30;78.30;;;;;;10245334;28;20069;-59
2023/10/25 01:43:38;;;;;;;1.17;0.80;;;16.30;78.40;;;;;;10245531;28;20031;-59
2023/10/25 01:48:39;;;;;;;1.27;0.80;;;16.30;78.40;;;;;;10245175;28;20452;-59
2023/10/25 01:53:39;;;;;;;2.70;1.00;;;16.30;78.40;;;;;;10245190;29;20729;-59
2023/10/25 01:58:40;;;;;;;1.17;0.70;;;16.20;78.40;;;;;;10245324;28;20035;-59
2023/10/25 02:03:41;;;;;;;1.02;0.75;;;16.20;78.40;;;;;;10244920;29;20041;-59
2023/10/25 02:08:41;;;;;;;1.10;0.73;;;16.20;78.40;;;;;;10244431;28;20081;-59
2023/10/25 02:13:42;;;;;;;1.88;0.80;;;16.30;78.40;;;;;;10245027;28;20043;-59
2023/10/25 02:18:43;;;;;;;4.85;1.10;;;16.20;78.30;;;;;;10243707;28;20019;-59
2023/10/25 02:23:44;;;;;;;2.75;0.80;;;16.20;78.30;;;;;;10312287;28;20054;-58
2023/10/25 02:28:45;;;;;;;1.88;0.77;;;16.20;78.30;;;;;;10247854;28;20043;-59
2023/10/25 02:33:46;;;;;;;1.50;1.27;;;16.20;78.40;;;;;;10250251;28;20027;-59
2023/10/25 02:38:48;;;;;;;1.48;1.00;;;16.20;78.30;;;;;;10243256;28;20390;-59
2023/10/25 02:43:51;;;;;;;1.65;0.80;;;16.20;78.40;;;;;;10244019;29;20032;-58
2023/10/25 02:48:55;;;;;;;1.08;0.75;;;16.20;78.30;;;;;;10243115;28;20031;-59
2023/10/25 02:53:55;;;;;;;1.58;0.95;;;16.20;78.30;;;;;;10243507;29;20031;-59
2023/10/25 02:58:56;;;;;;;1.13;0.70;;;16.20;78.30;;;;;;10241629;29;20024;-58
2023/10/25 03:03:57;;;;;;;2.00;0.80;;;16.20;78.30;;;;;;10243286;29;20410;-59
2023/10/25 03:08:57;;;;;;;2.50;1.00;;;16.20;78.30;;;;;;10242519;28;20031;-59
2023/10/25 03:13:58;;;;;;;1.05;0.80;;;16.20;78.20;;;;;;10242952;29;20027;-58
2023/10/25 03:18:59;;;;;;;1.45;0.93;;;16.10;78.20;;;;;;10242442;28;20486;-59
2023/10/25 03:24:00;;;;;;;1.25;0.77;;;16.20;78.30;;;;;;10309752;28;20027;-59
2023/10/25 03:29:01;;;;;;;1.70;0.80;;;16.20;78.30;;;;;;10248066;28;20521;-58
2023/10/25 03:34:02;;;;;;;2.22;0.80;;;16.20;78.20;;;;;;10245487;28;20127;-58
2023/10/25 03:39:03;;;;;;;1.92;0.73;;;16.20;78.20;;;;;;10245360;28;20357;-59
2023/10/25 03:44:04;;;;;;;2.70;0.85;;;16.20;78.00;;;;;;10240700;28;20496;-59
2023/10/25 03:49:05;;;;;;;1.83;1.00;;;16.50;76.90;;;;;;10238159;28;20035;-60
2023/10/25 03:54:06;;;;;;;2.55;0.80;;;16.90;76.10;;;;;;10242714;28;20036;-60
2023/10/25 03:59:07;;;;;;;3.15;1.17;;;17.20;75.30;;;;;;10237923;28;20027;-59
2023/10/25 04:04:09;;;;;;;1.33;0.70;;;17.40;74.60;;;;;;10237984;29;20030;-58
2023/10/25 04:09:11;;;;;;;0.88;0.70;;;17.60;73.70;;;;;;10238652;28;20027;-60
2023/10/25 04:14:11;;;;;;;1.30;0.73;;;17.60;73.50;;;;;;10242512;28;20487;-60
2023/10/25 04:19:12;;;;;;;2.75;0.77;;;17.70;73.40;;;;;;10223232;28;20031;-59
2023/10/25 04:24:13;;;;;;;2.03;0.90;;;17.60;73.60;;;;;;10306467;28;20043;-59
2023/10/25 04:29:13;;;;;;;0.95;0.52;;;17.50;73.80;;;;;;10277925;28;20039;-59
2023/10/25 04:34:14;;;;;;;1.85;0.90;;;17.50;73.90;;;;;;10308450;28;20036;-59
2023/10/25 04:39:15;;;;;;;1.67;0.80;;;17.40;74.00;;;;;;10240459;28;20034;-59
2023/10/25 04:44:15;;;;;;;2.78;1.00;;;17.40;74.10;;;;;;10314794;28;20523;-60
2023/10/25 04:49:16;;;;;;;1.15;0.60;;;17.40;74.10;;;;;;10247288;28;20401;-60
2023/10/25 04:54:17;;;;;;;1.42;0.90;;;17.50;74.00;;;;;;10246045;29;20376;-59
2023/10/25 04:59:17;;;;;;;1.50;1.02;;;17.40;74.70;;;;;;10246610;28;20023;-59
2023/10/25 05:04:18;;;;;;;1.40;0.80;;;17.40;74.20;;;;;;10247109;29;20027;-59
2023/10/25 05:09:19;;;;;;;5.88;1.50;;;17.40;74.10;;;;;;10246449;28;20403;-59
2023/10/25 05:14:20;;;;;;;4.00;1.25;;;17.40;74.20;;;;;;10246519;29;20065;-60
2023/10/25 05:19:21;;;;;;;3.92;1.48;;;17.40;74.50;;;;;;10246951;28;20039;-61
2023/10/25 05:24:22;;;;;;;6.03;1.77;;;17.50;74.70;;;;;;10314502;28;20039;-60
2023/10/25 05:29:23;;;;;;;7.68;1.70;;;17.60;75.60;;;;;;10255425;28;20514;-58
2023/10/25 05:34:24;;;;;;;6.20;2.05;;;17.60;74.90;;;;;;10246674;28;20035;-59
2023/10/25 05:39:25;;;;;;;8.48;1.90;;;17.60;74.90;;;;;;10246866;28;20023;-58
2023/10/25 05:44:26;;;;;;;9.05;2.10;;;17.60;74.80;;;;;;10245932;28;20397;-59
2023/10/25 05:49:27;;;;;;;7.05;1.35;;;17.60;75.20;;;;;;10245292;28;20035;-58
2023/10/25 05:54:29;;;;;;;15.68;2.70;;;17.40;75.40;;;;;;10244363;29;20143;-58
2023/10/25 05:59:30;;;;;;;11.70;2.15;;;17.40;76.20;;;;;;10244654;28;20050;-58
2023/10/25 06:04:35;;;;;;;10.75;2.50;;;17.30;76.10;;;;;;10243623;29;20053;-58
2023/10/25 06:09:38;;;;;;;13.57;3.45;;;17.20;76.10;;;;;;10240289;28;20648;-57
2023/10/25 06:14:38;;;;;;;10.60;2.72;;;17.20;76.30;;;;;;10242337;29;20114;-58
2023/10/25 06:19:39;;;;;;;13.60;3.53;;;17.10;76.30;;;;;;10243923;28;20034;-58
2023/10/25 06:24:40;;;;;;;10.18;2.60;;;17.10;76.20;;;;;;10311710;28;20027;-58
2023/10/25 06:29:41;;;;;;;12.52;2.28;;;17.10;76.00;;;;;;10252694;28;20410;-58
2023/10/25 06:34:41;;;;;;;7.15;2.10;;;17.10;75.90;;;;;;10244320;29;20130;-58
2023/10/25 06:39:42;;;;;;;6.97;2.97;;;17.10;76.00;;;;;;10243699;28;20501;-58
2023/10/25 06:44:44;;;;;;;8.80;2.53;;;17.00;76.20;;;;;;10243711;29;20039;-58
2023/10/25 06:49:44;;;;;;;7.20;1.85;;;17.00;76.60;;;;;;10243796;28;20723;-58
2023/10/25 06:54:46;;;;;;;15.50;3.28;;;17.10;76.70;;;;;;10242753;29;20122;-58
2023/10/25 06:59:47;;;;;;;8.52;1.70;;;17.10;76.10;;;;;;10241060;29;20024;-58
2023/10/25 07:04:56;;;;;;;6.75;2.50;;;17.10;76.40;;;;;;10242456;28;20043;-58
2023/10/25 07:09:57;;;;;;;7.10;3.27;;;17.10;76.60;;;;;;10241373;28;20034;-61
2023/10/25 07:14:58;;;;;;;12.90;2.70;;;17.10;76.70;;;;;;10243030;29;20500;-57
2023/10/25 07:19:59;;;;;;;4.45;1.42;;;17.10;76.40;;;;;;10241513;28;20027;-61
2023/10/25 07:24:59;;;;;;;8.68;1.65;;;17.10;76.20;;;;;;10298282;28;20093;-58
2023/10/25 07:30:00;;;;;;;7.65;2.03;;;17.10;76.70;;;;;;10245293;28;20044;-58
2023/10/25 07:35:01;;;;;;;12.23;1.95;;;17.10;76.80;;;;;;10242355;29;20488;-58
2023/10/25 07:40:05;;;;;;;7.55;1.77;;;17.10;76.60;;;;;;10241831;28;20060;-57
2023/10/25 07:45:06;;;;;;;6.57;2.00;;;17.00;76.60;;;;;;10242165;29;20031;-58
2023/10/25 07:50:08;;;;;;;10.77;2.55;;;17.00;76.80;;;;;;10241952;28;20027;-57
2023/10/25 07:55:09;;;;;;;8.68;1.63;;;17.00;76.80;;;;;;10241945;29;20352;-58
2023/10/25 08:00:10;;;;;;;7.43;2.03;;;17.00;76.60;;;;;;10241492;28;20036;-58
2023/10/25 08:05:10;;;;;;;6.95;1.85;;;16.90;76.60;;;;;;10241403;28;20080;-58
2023/10/25 08:10:11;;;;;;;6.18;1.75;;;16.90;76.70;;;;;;10240552;28;20108;-58
2023/10/25 08:15:12;;;;;;;5.60;1.98;;;16.90;76.90;;;;;;10240983;28;20089;-57
2023/10/25 08:20:13;;;;;;;4.72;1.48;;;16.80;76.80;;;;;;10247794;28;20034;-57
2023/10/25 08:25:14;;;;;;;7.20;1.70;;;16.90;76.90;;;;;;10316756;28;20092;-58
2023/10/25 08:30:14;;;;;;;5.80;1.63;;;17.00;76.50;;;;;;10258319;28;20465;-58
2023/10/25 08:35:17;;;;;;;8.32;1.88;;;17.00;76.20;;;;;;10247885;29;20042;-58
2023/10/25 08:40:18;;;;;;;4.05;1.55;;;17.10;76.10;;;;;;10247531;28;20027;-58
2023/10/25 08:45:19;;;;;;;6.47;1.48;;;17.20;75.70;;;;;;10247721;29;20035;-58
2023/10/25 08:50:20;;;;;;;3.50;1.15;;;17.20;75.50;;;;;;10246986;28;20037;-58
2023/10/25 08:55:21;;;;;;;3.65;1.40;;;17.20;75.60;;;;;;10247278;28;20027;-58
2023/10/25 09:00:30;;;;;;;7.68;1.98;;;17.10;75.70;;;;;;10246636;28;20024;-58
2023/10/25 09:05:43;;;;;;;3.43;1.37;;;17.10;76.00;;;;;;10246130;29;20023;-57
2023/10/25 09:10:53;;;;;;;6.10;1.55;;;17.00;76.10;;;;;;10245940;28;20298;-57
2023/10/25 09:16:11;;;;;;;8.40;1.73;;;17.00;76.50;;;;;;10246430;29;20035;-58
2023/10/25 09:21:11;;;;;;;3.65;1.65;;;17.10;76.20;;;;;;10246094;28;20478;-58
2023/10/25 09:26:15;;;;;;;6.95;2.20;;;17.10;75.90;;;;;;10316402;28;20031;-58
2023/10/25 09:31:26;;;;;;;3.15;1.50;;;17.10;75.90;;;;;;10252471;28;20059;-58
2023/10/25 09:36:28;;;;;;;10.40;2.38;;;17.00;76.00;;;;;;10244804;29;20054;-58
2023/10/25 09:41:34;;;;;;;3.88;1.45;;;17.00;76.00;;;;;;10244051;28;20479;-57
2023/10/25 09:46:36;;;;;;;3.60;1.17;;;17.00;76.30;;;;;;10243686;28;20031;-58
2023/10/25 09:52:08;;;;;;;3.42;1.55;;;17.10;75.60;;;;;;10242470;28;20109;-58
2023/10/25 09:57:11;;;;;;;3.65;1.20;;;17.10;75.60;;;;;;10244034;29;20058;-58
2023/10/25 10:02:33;;;;;;;6.00;1.42;;;17.10;75.70;;;;;;10242845;28;20055;-58
2023/10/25 10:08:15;;;;;;;6.78;1.95;;;17.10;75.60;;;;;;10243776;29;20114;-58
2023/10/25 10:13:17;;;;;;;3.40;1.33;;;17.10;75.40;;;;;;10243833;28;20626;-58
2023/10/25 10:18:19;;;;;;;4.18;1.25;;;17.10;75.50;;;;;;10242956;28;20073;-58
2023/10/25 10:23:49;;;;;;;3.60;1.38;;;17.00;75.70;;;;;;10312103;28;20472;-58
2023/10/25 10:28:50;;;;;;;3.80;1.77;;;17.10;75.50;;;;;;10247849;28;20047;-58
2023/10/25 10:33:50;;;;;;;4.07;1.23;;;17.10;75.40;;;;;;10248367;28;20494;-58
2023/10/25 10:39:16;;;;;;;3.78;1.77;;;17.00;75.40;;;;;;10242712;29;20475;-58
2023/10/25 10:44:17;;;;;;;2.95;1.30;;;17.10;75.40;;;;;;10242379;29;20043;-57
2023/10/25 10:49:23;;;;;;;2.78;1.20;;;17.10;75.20;;;;;;10241834;28;20035;-58
2023/10/25 10:54:24;;;;;;;2.15;1.15;;;17.10;75.10;;;;;;10242364;28;20031;-58
2023/10/25 10:59:28;;;;;;;4.20;1.30;;;17.10;75.20;;;;;;10242593;28;20386;-56
2023/10/25 11:04:29;;;;;;;3.72;1.63;;;17.00;75.40;;;;;;10239841;29;20104;-58
2023/10/25 11:09:31;;;;;;;3.13;1.77;;;17.00;75.50;;;;;;10242102;28;20072;-57
2023/10/25 11:14:43;;;;;;;4.88;1.77;;;17.00;75.50;;;;;;10241420;28;20031;-58
2023/10/25 11:19:46;;;;;;;3.47;1.10;;;17.00;75.50;;;;;;10241662;29;20027;-58
2023/10/25 11:24:48;;;;;;;2.22;1.13;;;17.00;75.50;;;;;;10308318;28;20035;-58
2023/10/25 11:29:50;;;;;;;2.30;1.30;;;16.90;75.60;;;;;;10252374;28;20046;-58
2023/10/25 11:34:56;;;;;;;2.10;1.27;;;16.90;75.70;;;;;;10240301;28;20035;-58
2023/10/25 11:40:01;;;;;;;3.83;1.42;;;16.90;75.80;;;;;;10241301;29;20054;-57
2023/10/25 11:45:04;;;;;;;1.80;1.10;;;16.90;75.80;;;;;;10240854;28;20027;-58
2023/10/25 11:50:05;;;;;;;2.75;1.08;;;16.90;75.60;;;;;;10239381;29;20477;-57
2023/10/25 11:55:06;;;;;;;3.35;2.22;;;17.00;76.00;;;;;;10245431;28;20526;-60
2023/10/25 12:00:08;;;;;;;4.90;1.40;;;17.00;75.50;;;;;;10281875;28;20538;-57
2023/10/25 12:05:10;;;;;;;4.72;1.60;;;17.10;75.10;;;;;;10239793;28;20654;-57
2023/10/25 12:10:10;;;;;;;2.53;1.30;;;17.20;74.50;;;;;;10240450;28;20031;-58
2023/10/25 12:15:11;;;;;;;4.25;1.20;;;17.20;74.50;;;;;;10239667;28;20066;-60
2023/10/25 12:20:12;;;;;;;4.75;1.70;;;17.10;75.00;;;;;;10296000;28;20278;-57
2023/10/25 12:25:13;;;;;;;9.70;2.47;;;17.10;75.10;;;;;;10306550;28;20043;-57
2023/10/25 12:30:13;;;;;;;13.15;2.40;;;17.30;75.40;;;;;;10250646;28;20043;-57
2023/10/25 12:35:14;;;;;;;14.65;2.97;;;17.40;74.80;;;;;;10238293;28;20027;-58
2023/10/25 12:40:16;;;;;;;12.32;2.70;;;17.50;75.50;;;;;;10239389;29;20027;-58
2023/10/25 12:45:16;;;;;;;11.43;3.50;;;17.70;75.10;;;;;;10238866;28;20055;-57
2023/10/25 12:50:17;;;;;;;13.60;3.17;;;17.70;75.30;;;;;;10240117;29;20027;-57
2023/10/25 12:55:18;;;;;;;9.45;2.75;;;17.60;75.50;;;;;;10238698;28;20036;-57
2023/10/25 13:00:20;;;;;;;6.88;1.83;;;17.50;75.70;;;;;;10239301;29;20081;-60
2023/10/25 13:05:21;;;;;;;12.90;3.35;;;17.60;76.10;;;;;;10244295;28;20435;-57
2023/10/25 13:10:22;;;;;;;26.38;4.22;;;17.50;76.30;;;;;;10245601;28;20039;-57
2023/10/25 13:15:22;;;;;;;10.02;2.40;;;17.30;76.60;;;;;;10244928;28;20539;-58
2023/10/25 13:20:23;;;;;;;11.38;2.88;;;17.30;76.40;;;;;;10260348;28;20072;-58
2023/10/25 13:25:25;;;;;;;15.32;2.90;;;17.20;76.90;;;;;;10257082;28;20534;-59
2023/10/25 13:30:26;;;;;;;17.05;3.08;;;17.30;77.10;;;;;;10254503;28;20047;-58
2023/10/25 13:35:27;;;;;;;16.25;3.60;;;17.30;77.50;;;;;;10244975;28;20024;-59
2023/10/25 13:40:28;;;;;;;21.58;3.42;;;17.30;76.90;;;;;;10244843;28;20042;-59
2023/10/25 13:45:29;;;;;;;17.23;2.90;;;17.20;77.20;;;;;;10244010;28;20027;-59
2023/10/25 13:50:30;;;;;;;17.80;3.00;;;17.20;77.20;;;;;;10244102;29;20118;-58
2023/10/25 13:55:36;;;;;;;11.95;2.70;;;17.20;77.50;;;;;;10244140;28;20027;-58
2023/10/25 14:00:37;;;;;;;28.52;3.42;;;17.20;77.60;;;;;;10242980;28;20034;-59
2023/10/25 14:05:44;;;;;;;17.88;2.78;;;17.20;77.80;;;;;;10240625;28;20035;-57
2023/10/25 14:10:46;;;;;;;10.05;2.28;;;17.10;77.80;;;;;;10242478;28;20035;-58
2023/10/25 14:15:47;;;;;;;16.17;3.22;;;17.10;77.70;;;;;;10241158;28;20036;-57
2023/10/25 14:20:48;;;;;;;16.17;3.85;;;17.20;78.00;;;;;;10243923;29;20404;-58
2023/10/25 14:25:49;;;;;;;12.95;2.83;;;17.20;78.10;;;;;;10310664;28;20038;-58
2023/10/25 14:30:49;;;;;;;14.52;3.60;;;17.20;78.00;;;;;;10247488;28;20055;-58
2023/10/25 14:35:50;;;;;;;12.45;2.97;;;17.10;78.10;;;;;;10241155;28;20126;-59
2023/10/25 14:40:51;;;;;;;13.30;2.92;;;17.00;78.20;;;;;;10242494;28;20040;-58
2023/10/25 14:45:51;;;;;;;16.45;3.45;;;17.00;78.30;;;;;;10242749;28;20042;-60
2023/10/25 14:50:52;;;;;;;17.02;3.95;;;17.00;78.10;;;;;;10241332;29;20042;-58
2023/10/25 14:55:53;;;;;;;25.88;4.15;;;17.00;78.20;;;;;;10242123;28;20498;-58
2023/10/25 15:00:54;;;;;;;17.80;3.33;;;16.90;78.80;;;;;;10241840;29;20559;-58
2023/10/25 15:05:55;;;;;;;12.00;3.15;;;16.90;79.20;;;;;;10246510;28;20043;-59
2023/10/25 15:11:02;;;;;;;9.48;2.47;;;16.90;78.50;;;;;;10241953;28;20035;-59
2023/10/25 15:16:03;;;;;;;11.43;3.22;;;17.00;78.00;;;;;;10241534;28;20110;-59
2023/10/25 15:21:04;;;;;;;9.30;3.00;;;17.00;78.30;;;;;;10240064;28;20031;-56
2023/10/25 15:26:05;;;;;;;12.00;3.25;;;17.00;78.60;;;;;;10250442;28;20027;-57
2023/10/25 15:31:11;;;;;;;20.48;3.33;;;17.00;78.60;;;;;;10236863;28;20047;-57
2023/10/25 15:36:11;;;;;;;17.15;2.95;;;16.90;78.40;;;;;;10240805;28;20034;-56
2023/10/25 15:41:23;;;;;;;15.07;4.00;;;16.90;78.40;;;;;;10239244;28;20051;-58
2023/10/25 15:46:27;;;;;;;11.00;3.28;;;16.90;78.50;;;;;;10237221;28;20870;-56
2023/10/25 15:51:28;;;;;;;12.70;2.25;;;16.90;78.10;;;;;;10239387;28;20023;-58
2023/10/25 15:56:28;;;;;;;11.93;2.20;;;17.00;77.50;;;;;;10239584;28;20532;-57
2023/10/25 16:01:29;;;;;;;7.95;2.15;;;17.30;76.60;;;;;;10239510;29;20027;-57
2023/10/25 16:06:30;;;;;;;7.07;2.42;;;17.40;77.00;;;;;;10239082;28;20422;-57
2023/10/25 16:11:35;;;;;;;8.13;2.67;;;17.50;76.90;;;;;;10240072;28;20031;-58
2023/10/25 16:16:36;;;;;;;9.05;3.75;;;17.70;76.70;;;;;;10239027;28;20035;-58
2023/10/25 16:21:36;;;;;;;11.68;2.70;;;17.90;81.10;;;;;;10235006;28;20673;-56
2023/10/25 16:26:37;;;;;;;11.38;2.78;;;17.90;78.30;;;;;;10238999;28;20035;-57
2023/10/25 16:31:38;;;;;;;8.30;2.72;;;17.80;79.40;;;;;;10240860;28;20039;-57
2023/10/25 16:36:39;;;;;;;20.95;3.30;;;17.70;78.00;;;;;;10240048;28;20483;-57
2023/10/25 16:41:40;;;;;;;17.20;2.95;;;17.70;77.90;;;;;;10247220;28;20042;-58
2023/10/25 16:46:40;;;;;;;8.30;2.63;;;17.60;77.80;;;;;;10220474;29;20036;-56
2023/10/25 16:51:43;;;;;;;16.23;2.60;;;17.50;78.40;;;;;;10238169;28;20045;-58
2023/10/25 16:56:44;;;;;;;25.52;6.20;;;17.50;78.90;;;;;;10281097;28;20031;-58
2023/10/25 17:01:44;;;;;;;11.48;3.55;;;17.60;78.80;;;;;;10284384;28;20035;-58
2023/10/25 17:06:45;;;;;;;7.70;2.67;;;17.60;78.50;;;;;;10275688;28;20065;-58
2023/10/25 17:11:46;;;;;;;15.13;3.28;;;17.60;78.60;;;;;;10243834;28;20035;-57
2023/10/25 17:16:47;;;;;;;11.60;2.30;;;17.60;78.10;;;;;;10246615;28;20027;-57
2023/10/25 17:21:48;;;;;;;11.88;2.00;;;17.40;78.30;;;;;;10264715;28;20035;-58
2023/10/25 17:26:49;;;;;;;9.50;2.20;;;17.20;78.50;;;;;;10286394;28;20022;-58
2023/10/25 17:31:49;;;;;;;7.30;2.40;;;17.20;78.80;;;;;;10281139;28;20092;-57
2023/10/25 17:36:50;;;;;;;15.02;2.28;;;17.10;79.10;;;;;;10238519;28;20092;-58
2023/10/25 17:41:51;;;;;;;6.55;2.15;;;17.10;79.00;;;;;;10241341;28;20027;-58
2023/10/25 17:46:52;;;;;;;4.50;2.03;;;17.00;78.90;;;;;;10229742;28;20042;-59
2023/10/25 17:51:52;;;;;;;6.78;1.95;;;17.10;78.90;;;;;;10270442;28;20027;-59
2023/10/25 17:56:53;;;;;;;9.00;1.80;;;17.00;78.90;;;;;;10260191;28;20088;-59
2023/10/25 18:01:54;;;;;;;8.15;2.10;;;17.00;79.00;;;;;;10242001;28;20019;-58
2023/10/25 18:06:55;;;;;;;6.47;2.00;;;16.90;79.10;;;;;;10260692;28;20035;-60
2023/10/25 18:11:55;;;;;;;4.47;1.45;;;16.90;79.10;;;;;;10282195;28;20056;-59
2023/10/25 18:16:57;;;;;;;6.88;2.60;;;17.00;78.70;;;;;;10280854;28;20030;-59
2023/10/25 18:22:00;;;;;;;6.50;2.55;;;17.00;78.90;;;;;;10281781;28;20088;-59
2023/10/25 18:27:01;;;;;;;4.20;2.08;;;17.10;79.10;;;;;;10289380;28;20031;-59
2023/10/25 18:32:03;;;;;;;10.10;2.20;;;17.00;78.80;;;;;;10257400;28;20039;-59
2023/10/25 18:37:03;;;;;;;6.28;1.88;;;16.90;79.10;;;;;;10243781;28;20050;-59
2023/10/25 18:42:05;;;;;;;3.42;1.30;;;16.80;79.30;;;;;;10281392;28;20027;-59
2023/10/25 18:47:07;;;;;;;4.38;1.90;;;16.80;79.30;;;;;;10258710;28;20570;-59
2023/10/25 18:52:08;;;;;;;4.32;1.83;;;16.70;79.30;;;;;;10351088;28;20032;-58
2023/10/25 18:57:09;;;;;;;3.65;1.77;;;16.70;79.30;;;;;;10272123;28;20031;-58
2023/10/25 19:02:09;;;;;;;4.72;1.40;;;16.80;79.00;;;;;;10336929;28;20050;-59
2023/10/25 19:07:10;;;;;;;2.63;1.10;;;16.80;78.90;;;;;;10324145;28;20025;-59
2023/10/25 19:12:12;;;;;;;2.88;1.75;;;16.80;78.80;;;;;;10271305;28;20057;-58
2023/10/25 19:17:15;;;;;;;7.25;1.77;;;16.80;78.70;;;;;;10239923;28;20035;-58
2023/10/25 19:22:17;;;;;;;4.78;1.45;;;16.80;78.60;;;;;;10242429;28;20027;-58
2023/10/25 19:27:19;;;;;;;3.58;1.70;;;16.80;78.70;;;;;;10241717;28;20032;-58
2023/10/25 19:32:19;;;;;;;4.07;1.75;;;16.70;78.70;;;;;;10241126;28;20043;-58
2023/10/25 19:37:20;;;;;;;4.50;1.45;;;16.70;78.70;;;;;;10241330;28;20031;-58
2023/10/25 19:42:21;;;;;;;4.15;2.17;;;16.70;78.70;;;;;;10238531;28;20031;-58
2023/10/25 19:47:21;;;;;;;4.50;1.80;;;16.70;78.70;;;;;;10301877;28;20036;-58
2023/10/25 19:52:22;;;;;;;2.55;1.67;;;16.70;78.80;;;;;;10449889;28;20431;-58
2023/10/25 19:57:23;;;;;;;3.78;1.58;;;16.70;78.80;;;;;;10450531;28;20024;-58
2023/10/25 20:02:24;;;;;;;2.95;1.33;;;16.60;78.70;;;;;;10449992;28;20040;-58
2023/10/25 20:07:25;;;;;;;2.70;1.30;;;16.60;78.70;;;;;;10450436;28;20080;-58
2023/10/25 20:12:30;;;;;;;3.95;1.52;;;16.60;78.80;;;;;;10451738;28;20025;-58
2023/10/25 20:17:30;;;;;;;2.65;1.45;;;16.60;78.80;;;;;;10458574;28;20075;-58
2023/10/25 20:22:35;;;;;;;2.72;1.20;;;16.60;78.80;;;;;;10458092;28;20082;-58
2023/10/25 20:27:36;;;;;;;3.58;1.50;;;16.60;78.80;;;;;;10458141;28;20021;-58
2023/10/25 20:32:36;;;;;;;2.97;1.80;;;16.50;78.70;;;;;;10307896;28;20078;-58
2023/10/25 20:37:38;;;;;;;7.38;2.42;;;16.60;78.60;;;;;;10287908;28;20111;-58
2023/10/25 20:42:38;;;;;;;4.00;2.33;;;16.50;78.60;;;;;;10287602;28;20035;-58
2023/10/25 20:47:39;;;;;;;3.70;1.63;;;16.50;78.60;;;;;;10288221;28;20492;-58
2023/10/25 20:52:40;;;;;;;4.65;2.13;;;16.50;78.50;;;;;;10286937;28;20031;-58
2023/10/25 20:57:40;;;;;;;2.33;1.45;;;16.50;78.50;;;;;;10287257;28;20466;-58
2023/10/25 21:02:41;;;;;;;3.53;1.48;;;16.50;78.60;;;;;;10287065;28;20108;-58
2023/10/25 21:07:42;;;;;;;2.72;1.55;;;16.40;78.50;;;;;;10283434;28;20047;-58
2023/10/25 21:12:43;;;;;;;3.20;1.40;;;16.50;78.50;;;;;;10246807;28;20039;-58
2023/10/25 21:17:43;;;;;;;3.58;1.92;;;16.40;78.40;;;;;;10246643;29;20031;-58
2023/10/25 21:22:45;;;;;;;3.10;1.20;;;16.40;78.50;;;;;;10245823;28;20508;-58
2023/10/25 21:27:46;;;;;;;2.85;1.35;;;16.40;78.50;;;;;;10246103;29;20570;-58
2023/10/25 21:32:47;;;;;;;1.92;1.25;;;16.40;78.50;;;;;;10245700;28;20047;-58
2023/10/25 21:37:48;;;;;;;2.38;1.10;;;16.40;78.50;;;;;;10278881;28;20114;-58
2023/10/25 21:42:49;;;;;;;1.95;1.55;;;16.40;78.50;;;;;;10285909;28;20427;-58
2023/10/25 21:47:50;;;;;;;3.45;1.60;;;16.40;78.50;;;;;;10285838;28;20412;-58
2023/10/25 21:52:50;;;;;;;2.42;1.42;;;16.40;78.40;;;;;;10284908;28;20046;-58
2023/10/25 21:57:51;;;;;;;2.80;1.08;;;16.30;78.40;;;;;;10284351;28;20033;-58
2023/10/25 22:02:52;;;;;;;2.22;1.60;;;16.30;78.40;;;;;;10284978;28;20034;-58
2023/10/25 22:07:52;;;;;;;2.97;1.45;;;16.30;78.40;;;;;;10285623;28;20045;-58
2023/10/25 22:12:53;;;;;;;3.05;1.80;;;16.30;79.00;;;;;;10285009;28;20528;-58
2023/10/25 22:17:54;;;;;;;3.15;1.58;;;16.30;78.40;;;;;;10285051;28;20393;-58
2023/10/25 22:22:55;;;;;;;4.03;1.42;;;16.30;78.30;;;;;;10283779;28;20118;-58
2023/10/25 22:27:56;;;;;;;3.05;1.38;;;16.30;78.30;;;;;;10283862;28;20035;-58
2023/10/25 22:32:56;;;;;;;2.03;1.50;;;16.30;78.30;;;;;;10283961;28;20431;-58
2023/10/25 22:37:57;;;;;;;4.85;1.70;;;16.30;78.30;;;;;;10283601;28;20118;-58
2023/10/25 22:42:58;;;;;;;3.72;2.03;;;16.30;78.90;;;;;;10284208;28;20026;-58
2023/10/25 22:47:59;;;;;;;2.03;1.35;;;16.30;78.30;;;;;;10283876;28;20038;-58
2023/10/25 22:53:00;;;;;;;2.78;1.70;;;16.30;78.30;;;;;;10283154;28;20424;-58
2023/10/25 22:58:00;;;;;;;2.60;1.55;;;16.30;78.30;;;;;;10283505;28;20023;-57
2023/10/25 23:03:01;;;;;;;2.60;1.55;;;16.30;78.30;;;;;;10282993;28;20034;-58
2023/10/25 23:08:02;;;;;;;3.15;1.60;;;16.30;78.20;;;;;;10283354;28;20031;-58
2023/10/25 23:13:03;;;;;;;2.50;1.77;;;16.30;78.20;;;;;;10283398;28;20169;-58
2023/10/25 23:18:03;;;;;;;2.25;1.40;;;16.30;78.20;;;;;;10283163;28;20047;-58
2023/10/25 23:23:04;;;;;;;1.55;1.33;;;16.20;78.00;;;;;;10282897;28;20046;-58
2023/10/25 23:28:05;;;;;;;1.90;1.38;;;16.30;78.00;;;;;;10282550;28;20031;-58
2023/10/25 23:33:06;;;;;;;2.65;1.52;;;16.30;78.00;;;;;;10259462;28;20051;-58
2023/10/25 23:38:07;;;;;;;2.83;1.45;;;16.30;78.00;;;;;;10277861;28;20023;-58
2023/10/25 23:43:07;;;;;;;2.50;1.30;;;16.20;78.00;;;;;;10281809;28;20038;-58
2023/10/25 23:48:08;;;;;;;2.58;1.95;;;16.30;78.10;;;;;;10280973;28;20039;-58
2023/10/25 23:53:10;;;;;;;2.55;1.70;;;16.20;78.00;;;;;;10281377;28;20031;-58
2023/10/25 23:58:11;;;;;;;2.53;1.60;;;16.20;77.90;;;;;;10281873;28;20023;-58
